createdAt,value
2023-04-12T00:10:04.081Z,77
2023-04-12T00:29:17.569Z,75.9
2023-04-12T00:48:28.450Z,82.4
2023-04-12T01:07:37.341Z,87.2
2023-04-12T01:26:49.072Z,92.6
2023-04-12T01:46:02.003Z,95.1
2023-04-12T02:05:12.795Z,97.7
2023-04-12T02:24:24.645Z,99.6
2023-04-12T02:43:35.769Z,100
2023-04-12T03:02:45.727Z,100
2023-04-12T03:21:58.222Z,100
2023-04-12T03:41:09.959Z,100
2023-04-12T04:00:22.022Z,100
2023-04-12T04:19:33.605Z,100
2023-04-12T04:38:42.075Z,100
2023-04-12T04:57:53.522Z,100
2023-04-12T05:17:05.455Z,100
2023-04-12T05:36:17.210Z,100
2023-04-12T05:55:28.926Z,100
2023-04-12T06:14:41.447Z,100
2023-04-12T06:33:53.264Z,100
2023-04-12T06:53:07.427Z,100
2023-04-12T07:12:19.444Z,100
2023-04-12T07:31:33.445Z,100
2023-04-12T07:50:46.366Z,100
2023-04-12T08:10:00.003Z,100
2023-04-12T08:29:13.946Z,100
2023-04-12T08:48:27.508Z,100
2023-04-12T09:07:40.470Z,100
2023-04-12T09:26:53.348Z,100
2023-04-12T09:46:07.600Z,100
2023-04-12T10:05:20.937Z,100
2023-04-12T10:24:31.496Z,100
2023-04-12T10:43:44.118Z,100
2023-04-12T11:03:02.219Z,100
2023-04-12T11:22:15.119Z,100
2023-04-12T11:41:27.217Z,100
2023-04-12T12:00:37.984Z,100
2023-04-12T12:19:48.565Z,100
2023-04-12T12:38:55.408Z,100
2023-04-12T12:58:08.742Z,100
2023-04-12T13:17:22.010Z,100
2023-04-12T13:36:34.315Z,98
2023-04-12T13:55:46.985Z,95.9
2023-04-12T14:14:59.809Z,89.4
2023-04-12T14:34:15.302Z,84.7
2023-04-12T14:53:28.520Z,78.7
2023-04-12T15:12:40.678Z,76.1
2023-04-12T15:31:48.840Z,77.4
2023-04-12T15:51:00.435Z,80.4
2023-04-12T16:10:10.881Z,79.9
2023-04-12T16:29:17.731Z,93.1
2023-04-12T16:48:28.163Z,94.7
2023-04-12T17:07:39.269Z,97.6
2023-04-12T17:26:51.579Z,91.1
2023-04-12T17:46:04.365Z,89.3
2023-04-12T18:05:14.739Z,90.7
2023-04-12T18:24:25.038Z,95
2023-04-12T18:43:34.205Z,95
2023-04-12T19:02:45.657Z,98.2
2023-04-12T19:21:56.557Z,95.6
2023-04-12T19:41:06.339Z,96.5
2023-04-12T20:00:17.893Z,99.6
2023-04-12T20:19:29.758Z,99.6
2023-04-12T20:38:40.506Z,99.4
2023-04-12T20:57:50.362Z,100
2023-04-12T21:17:00.513Z,100
2023-04-12T21:36:13.817Z,100
2023-04-12T21:55:27.729Z,100
2023-04-12T22:14:39.547Z,95
2023-04-12T22:33:52.611Z,91.6
2023-04-12T22:53:05.121Z,89.1
2023-04-12T23:12:17.143Z,91.9
2023-04-12T23:31:28.971Z,96
2023-04-12T23:50:39.330Z,96.5
